sensor_id;sensor_type;location;lat;lon;timestamp;pressure;altitude;pressure_sealevel;temperature;humidity
16525;BME280;8375;33.594;-117.718;2023-02-11T00:02:14;100387.41;;;22.70;17.81
16525;BME280;8375;33.594;-117.718;2023-02-11T00:04:44;100378.84;;;22.68;18.23
16525;BME280;8375;33.594;-117.718;2023-02-11T00:07:20;100377.56;;;22.57;17.46
16525;BME280;8375;33.594;-117.718;2023-02-11T00:10:00;100371.13;;;22.66;18.44
16525;BME280;8375;33.594;-117.718;2023-02-11T00:12:30;100365.22;;;22.64;18.67
16525;BME280;8375;33.594;-117.718;2023-02-11T00:15:01;100374.56;;;22.67;18.72
16525;BME280;8375;33.594;-117.718;2023-02-11T00:17:31;100376.59;;;22.65;18.42
16525;BME280;8375;33.594;-117.718;2023-02-11T00:20:00;100368.41;;;22.60;18.32
16525;BME280;8375;33.594;-117.718;2023-02-11T00:22:30;100367.38;;;22.54;18.86
16525;BME280;8375;33.594;-117.718;2023-02-11T00:25:00;100363.78;;;22.40;18.66
16525;BME280;8375;33.594;-117.718;2023-02-11T00:27:30;100365.38;;;22.34;19.22
16525;BME280;8375;33.594;-117.718;2023-02-11T00:30:01;100369.31;;;22.17;19.12
16525;BME280;8375;33.594;-117.718;2023-02-11T00:32:30;100363.78;;;22.11;19.38
16525;BME280;8375;33.594;-117.718;2023-02-11T00:34:59;100366.69;;;21.95;18.71
16525;BME280;8375;33.594;-117.718;2023-02-11T00:37:29;100368.09;;;21.76;19.50
16525;BME280;8375;33.594;-117.718;2023-02-11T00:39:58;100371.69;;;21.68;20.90
16525;BME280;8375;33.594;-117.718;2023-02-11T00:42:27;100369.78;;;21.62;20.46
16525;BME280;8375;33.594;-117.718;2023-02-11T00:44:56;100374.16;;;21.54;20.70
16525;BME280;8375;33.594;-117.718;2023-02-11T00:47:26;100371.81;;;21.45;19.26
16525;BME280;8375;33.594;-117.718;2023-02-11T00:49:55;100368.00;;;21.32;20.19
16525;BME280;8375;33.594;-117.718;2023-02-11T00:52:23;100371.66;;;21.16;20.45
16525;BME280;8375;33.594;-117.718;2023-02-11T00:54:52;100368.84;;;21.03;19.57
16525;BME280;8375;33.594;-117.718;2023-02-11T00:57:21;100370.56;;;20.95;19.80
16525;BME280;8375;33.594;-117.718;2023-02-11T00:59:49;100372.22;;;20.81;19.82
16525;BME280;8375;33.594;-117.718;2023-02-11T01:02:18;100374.91;;;20.73;20.00
16525;BME280;8375;33.594;-117.718;2023-02-11T01:04:48;100380.44;;;20.63;18.80
16525;BME280;8375;33.594;-117.718;2023-02-11T01:07:17;100381.88;;;20.51;17.71
16525;BME280;8375;33.594;-117.718;2023-02-11T01:09:46;100384.38;;;20.29;18.76
16525;BME280;8375;33.594;-117.718;2023-02-11T01:12:14;100386.16;;;20.14;18.96
16525;BME280;8375;33.594;-117.718;2023-02-11T01:14:43;100378.94;;;20.07;19.26
16525;BME280;8375;33.594;-117.718;2023-02-11T01:17:12;100384.63;;;19.96;19.58
16525;BME280;8375;33.594;-117.718;2023-02-11T01:19:40;100389.63;;;19.83;18.39
16525;BME280;8375;33.594;-117.718;2023-02-11T01:22:11;100389.25;;;19.62;18.23
16525;BME280;8375;33.594;-117.718;2023-02-11T01:24:39;100394.69;;;19.61;18.58
16525;BME280;8375;33.594;-117.718;2023-02-11T01:27:08;100394.72;;;19.53;18.73
16525;BME280;8375;33.594;-117.718;2023-02-11T01:29:37;100393.84;;;19.29;17.92
16525;BME280;8375;33.594;-117.718;2023-02-11T01:32:05;100389.94;;;19.16;18.10
16525;BME280;8375;33.594;-117.718;2023-02-11T01:34:34;100402.31;;;19.08;17.93
16525;BME280;8375;33.594;-117.718;2023-02-11T01:37:03;100400.03;;;18.96;19.45
16525;BME280;8375;33.594;-117.718;2023-02-11T01:39:34;100382.94;;;18.84;20.24
16525;BME280;8375;33.594;-117.718;2023-02-11T01:42:03;100391.50;;;18.77;18.88
16525;BME280;8375;33.594;-117.718;2023-02-11T01:44:34;100389.56;;;18.71;18.88
16525;BME280;8375;33.594;-117.718;2023-02-11T01:47:04;100398.56;;;18.69;20.80
16525;BME280;8375;33.594;-117.718;2023-02-11T01:49:35;100399.56;;;18.59;21.12
16525;BME280;8375;33.594;-117.718;2023-02-11T01:52:08;100397.59;;;18.53;22.42
16525;BME280;8375;33.594;-117.718;2023-02-11T01:54:42;100395.66;;;18.39;21.59
16525;BME280;8375;33.594;-117.718;2023-02-11T01:57:30;100399.25;;;18.29;23.81
16525;BME280;8375;33.594;-117.718;2023-02-11T02:00:08;100395.78;;;18.21;23.21
16525;BME280;8375;33.594;-117.718;2023-02-11T02:02:43;100396.56;;;17.96;22.41
16525;BME280;8375;33.594;-117.718;2023-02-11T02:05:24;100396.91;;;17.93;22.54
16525;BME280;8375;33.594;-117.718;2023-02-11T02:08:01;100396.56;;;17.88;23.66
16525;BME280;8375;33.594;-117.718;2023-02-11T02:10:34;100397.66;;;17.77;22.88
16525;BME280;8375;33.594;-117.718;2023-02-11T02:13:04;100407.69;;;17.73;22.62
16525;BME280;8375;33.594;-117.718;2023-02-11T02:15:33;100409.31;;;17.66;24.08
16525;BME280;8375;33.594;-117.718;2023-02-11T02:18:13;100400.56;;;17.57;24.17
16525;BME280;8375;33.594;-117.718;2023-02-11T02:21:13;100395.91;;;17.43;22.37
16525;BME280;8375;33.594;-117.718;2023-02-11T02:24:21;100400.97;;;17.28;21.95
16525;BME280;8375;33.594;-117.718;2023-02-11T02:33:11;100389.38;;;17.04;24.27
16525;BME280;8375;33.594;-117.718;2023-02-11T02:35:49;100401.44;;;16.97;23.65
16525;BME280;8375;33.594;-117.718;2023-02-11T02:38:23;100402.41;;;16.96;25.25
16525;BME280;8375;33.594;-117.718;2023-02-11T02:40:58;100400.53;;;16.88;24.12
16525;BME280;8375;33.594;-117.718;2023-02-11T02:43:30;100401.31;;;16.80;24.38
16525;BME280;8375;33.594;-117.718;2023-02-11T02:46:10;100399.81;;;16.78;23.85
16525;BME280;8375;33.594;-117.718;2023-02-11T02:48:40;100403.41;;;16.77;23.92
16525;BME280;8375;33.594;-117.718;2023-02-11T02:51:25;100406.22;;;16.75;23.08
16525;BME280;8375;33.594;-117.718;2023-02-11T02:54:15;100397.97;;;16.70;24.61
16525;BME280;8375;33.594;-117.718;2023-02-11T02:56:54;100402.56;;;16.68;24.70
16525;BME280;8375;33.594;-117.718;2023-02-11T02:59:37;100392.50;;;16.63;25.00
16525;BME280;8375;33.594;-117.718;2023-02-11T03:02:17;100408.91;;;16.65;25.63
16525;BME280;8375;33.594;-117.718;2023-02-11T03:04:56;100405.25;;;16.58;24.72
16525;BME280;8375;33.594;-117.718;2023-02-11T03:07:34;100402.13;;;16.54;25.18
16525;BME280;8375;33.594;-117.718;2023-02-11T03:10:08;100395.97;;;16.46;25.77
16525;BME280;8375;33.594;-117.718;2023-02-11T03:12:40;100387.13;;;16.20;26.77
16525;BME280;8375;33.594;-117.718;2023-02-11T03:15:10;100391.31;;;16.13;27.42
16525;BME280;8375;33.594;-117.718;2023-02-11T03:17:41;100393.09;;;16.12;26.99
16525;BME280;8375;33.594;-117.718;2023-02-11T03:20:17;100397.06;;;15.98;27.76
16525;BME280;8375;33.594;-117.718;2023-02-11T03:22:49;100386.22;;;15.93;26.87
16525;BME280;8375;33.594;-117.718;2023-02-11T03:25:22;100383.72;;;15.92;28.71
16525;BME280;8375;33.594;-117.718;2023-02-11T03:27:58;100382.66;;;15.84;29.20
16525;BME280;8375;33.594;-117.718;2023-02-11T03:30:33;100384.72;;;15.81;29.80
16525;BME280;8375;33.594;-117.718;2023-02-11T03:33:10;100386.81;;;15.77;30.24
16525;BME280;8375;33.594;-117.718;2023-02-11T03:35:46;100381.34;;;15.70;30.21
16525;BME280;8375;33.594;-117.718;2023-02-11T03:38:20;100383.06;;;15.62;30.24
16525;BME280;8375;33.594;-117.718;2023-02-11T03:40:50;100373.84;;;15.58;30.87
16525;BME280;8375;33.594;-117.718;2023-02-11T03:43:21;100375.25;;;15.52;30.22
16525;BME280;8375;33.594;-117.718;2023-02-11T03:45:55;100368.94;;;15.45;30.36
16525;BME280;8375;33.594;-117.718;2023-02-11T03:48:27;100362.75;;;15.46;31.74
16525;BME280;8375;33.594;-117.718;2023-02-11T03:51:01;100361.69;;;15.38;29.99
16525;BME280;8375;33.594;-117.718;2023-02-11T03:53:31;100365.72;;;15.33;29.95
16525;BME280;8375;33.594;-117.718;2023-02-11T03:56:03;100356.06;;;15.33;29.91
16525;BME280;8375;33.594;-117.718;2023-02-11T03:58:32;100354.03;;;15.27;30.97
16525;BME280;8375;33.594;-117.718;2023-02-11T04:01:01;100364.09;;;15.22;30.85
16525;BME280;8375;33.594;-117.718;2023-02-11T04:03:30;100369.63;;;15.19;31.58
16525;BME280;8375;33.594;-117.718;2023-02-11T04:06:01;100367.28;;;15.16;33.31
16525;BME280;8375;33.594;-117.718;2023-02-11T04:08:29;100372.13;;;15.10;32.28
16525;BME280;8375;33.594;-117.718;2023-02-11T04:10:58;100369.00;;;15.07;34.07
16525;BME280;8375;33.594;-117.718;2023-02-11T04:13:27;100363.78;;;14.97;32.60
16525;BME280;8375;33.594;-117.718;2023-02-11T04:15:56;100355.44;;;14.93;32.69
16525;BME280;8375;33.594;-117.718;2023-02-11T04:18:24;100357.78;;;14.87;32.24
16525;BME280;8375;33.594;-117.718;2023-02-11T04:20:53;100347.19;;;14.88;32.73
16525;BME280;8375;33.594;-117.718;2023-02-11T04:23:24;100354.19;;;14.88;33.65
16525;BME280;8375;33.594;-117.718;2023-02-11T04:25:52;100355.88;;;14.79;32.44
16525;BME280;8375;33.594;-117.718;2023-02-11T04:28:21;100364.13;;;14.74;32.79
16525;BME280;8375;33.594;-117.718;2023-02-11T04:30:50;100358.91;;;14.74;32.51
16525;BME280;8375;33.594;-117.718;2023-02-11T04:33:18;100365.50;;;14.69;32.33
16525;BME280;8375;33.594;-117.718;2023-02-11T04:35:47;100362.22;;;14.66;32.50
16525;BME280;8375;33.594;-117.718;2023-02-11T04:38:16;100364.53;;;14.60;31.72
16525;BME280;8375;33.594;-117.718;2023-02-11T04:40:46;100365.09;;;14.53;32.03
16525;BME280;8375;33.594;-117.718;2023-02-11T04:43:15;100361.28;;;14.48;32.29
16525;BME280;8375;33.594;-117.718;2023-02-11T04:45:44;100361.28;;;14.48;32.93
16525;BME280;8375;33.594;-117.718;2023-02-11T04:48:12;100361.41;;;14.46;33.59
16525;BME280;8375;33.594;-117.718;2023-02-11T04:50:41;100359.78;;;14.35;33.34
16525;BME280;8375;33.594;-117.718;2023-02-11T04:53:09;100360.19;;;14.41;35.13
16525;BME280;8375;33.594;-117.718;2023-02-11T04:55:38;100361.81;;;14.32;32.92
16525;BME280;8375;33.594;-117.718;2023-02-11T04:58:08;100364.31;;;14.23;33.14
16525;BME280;8375;33.594;-117.718;2023-02-11T05:00:37;100372.81;;;14.26;33.51
16525;BME280;8375;33.594;-117.718;2023-02-11T05:03:06;100361.97;;;14.20;33.46
16525;BME280;8375;33.594;-117.718;2023-02-11T05:05:37;100354.00;;;14.12;33.58
16525;BME280;8375;33.594;-117.718;2023-02-11T05:08:07;100343.03;;;14.08;34.81
16525;BME280;8375;33.594;-117.718;2023-02-11T05:10:35;100343.16;;;14.07;35.48
16525;BME280;8375;33.594;-117.718;2023-02-11T05:13:04;100337.13;;;14.06;35.06
16525;BME280;8375;33.594;-117.718;2023-02-11T05:15:34;100333.25;;;14.01;33.87
16525;BME280;8375;33.594;-117.718;2023-02-11T05:18:04;100340.97;;;14.02;35.26
16525;BME280;8375;33.594;-117.718;2023-02-11T05:20:32;100335.44;;;13.96;36.56
16525;BME280;8375;33.594;-117.718;2023-02-11T05:23:01;100322.56;;;13.94;36.57
16525;BME280;8375;33.594;-117.718;2023-02-11T05:25:30;100319.38;;;13.90;35.99
16525;BME280;8375;33.594;-117.718;2023-02-11T05:27:59;100311.56;;;13.81;35.84
16525;BME280;8375;33.594;-117.718;2023-02-11T05:30:27;100294.66;;;13.75;36.71
16525;BME280;8375;33.594;-117.718;2023-02-11T05:32:58;100288.75;;;13.73;38.26
16525;BME280;8375;33.594;-117.718;2023-02-11T05:35:26;100293.00;;;13.74;37.30
16525;BME280;8375;33.594;-117.718;2023-02-11T05:37:55;100273.50;;;13.78;37.45
16525;BME280;8375;33.594;-117.718;2023-02-11T05:40:24;100273.50;;;13.78;37.15
16525;BME280;8375;33.594;-117.718;2023-02-11T05:42:55;100278.44;;;13.81;37.46
16525;BME280;8375;33.594;-117.718;2023-02-11T05:45:24;100299.91;;;13.85;36.37
16525;BME280;8375;33.594;-117.718;2023-02-11T05:47:52;100311.28;;;13.84;34.67
16525;BME280;8375;33.594;-117.718;2023-02-11T05:50:23;100309.75;;;13.81;34.19
16525;BME280;8375;33.594;-117.718;2023-02-11T05:52:51;100306.47;;;13.79;34.91
16525;BME280;8375;33.594;-117.718;2023-02-11T05:55:20;100305.50;;;13.80;36.16
16525;BME280;8375;33.594;-117.718;2023-02-11T05:57:49;100308.53;;;13.75;36.51
16525;BME280;8375;33.594;-117.718;2023-02-11T06:00:18;100304.41;;;13.73;36.41
16525;BME280;8375;33.594;-117.718;2023-02-11T06:02:47;100302.34;;;13.67;36.02
16525;BME280;8375;33.594;-117.718;2023-02-11T06:05:15;100306.19;;;13.62;35.30
16525;BME280;8375;33.594;-117.718;2023-02-11T06:07:46;100298.63;;;13.59;37.02
16525;BME280;8375;33.594;-117.718;2023-02-11T06:10:14;100294.63;;;13.55;38.11
16525;BME280;8375;33.594;-117.718;2023-02-11T06:12:43;100308.22;;;13.49;37.33
16525;BME280;8375;33.594;-117.718;2023-02-11T06:15:12;100309.81;;;13.40;38.21
16525;BME280;8375;33.594;-117.718;2023-02-11T06:17:40;100308.97;;;13.30;38.37
16525;BME280;8375;33.594;-117.718;2023-02-11T06:20:10;100307.03;;;13.22;38.96
16525;BME280;8375;33.594;-117.718;2023-02-11T06:22:38;100307.28;;;13.19;39.11
16525;BME280;8375;33.594;-117.718;2023-02-11T06:25:09;100312.34;;;13.11;38.68
16525;BME280;8375;33.594;-117.718;2023-02-11T06:27:43;100306.69;;;13.05;38.68
16525;BME280;8375;33.594;-117.718;2023-02-11T06:30:15;100300.22;;;13.00;39.36
16525;BME280;8375;33.594;-117.718;2023-02-11T06:32:46;100299.66;;;12.96;40.06
16525;BME280;8375;33.594;-117.718;2023-02-11T06:35:14;100306.53;;;12.97;41.25
16525;BME280;8375;33.594;-117.718;2023-02-11T06:37:43;100306.78;;;12.94;39.77
16525;BME280;8375;33.594;-117.718;2023-02-11T06:40:14;100309.91;;;12.88;39.07
16525;BME280;8375;33.594;-117.718;2023-02-11T06:42:42;100302.63;;;12.82;39.15
16525;BME280;8375;33.594;-117.718;2023-02-11T06:45:11;100302.34;;;12.85;38.82
16525;BME280;8375;33.594;-117.718;2023-02-11T06:47:40;100296.56;;;12.81;39.95
16525;BME280;8375;33.594;-117.718;2023-02-11T06:50:12;100294.63;;;12.73;39.13
16525;BME280;8375;33.594;-117.718;2023-02-11T06:52:41;100295.16;;;12.67;40.02
16525;BME280;8375;33.594;-117.718;2023-02-11T06:55:09;100292.66;;;12.66;40.95
16525;BME280;8375;33.594;-117.718;2023-02-11T06:57:40;100288.09;;;12.58;41.89
16525;BME280;8375;33.594;-117.718;2023-02-11T07:00:09;100288.88;;;12.49;41.86
16525;BME280;8375;33.594;-117.718;2023-02-11T07:02:38;100276.75;;;12.38;42.40
16525;BME280;8375;33.594;-117.718;2023-02-11T07:05:08;100278.53;;;12.37;42.82
16525;BME280;8375;33.594;-117.718;2023-02-11T07:07:36;100276.56;;;12.29;41.88
16525;BME280;8375;33.594;-117.718;2023-02-11T07:10:06;100269.44;;;12.31;44.51
16525;BME280;8375;33.594;-117.718;2023-02-11T07:12:34;100269.13;;;12.25;43.66
16525;BME280;8375;33.594;-117.718;2023-02-11T07:15:05;100273.66;;;12.23;44.01
16525;BME280;8375;33.594;-117.718;2023-02-11T07:17:34;100260.00;;;12.09;44.29
16525;BME280;8375;33.594;-117.718;2023-02-11T07:20:03;100258.34;;;12.08;44.32
16525;BME280;8375;33.594;-117.718;2023-02-11T07:22:33;100253.66;;;12.02;43.39
16525;BME280;8375;33.594;-117.718;2023-02-11T07:25:02;100247.34;;;12.05;45.64
16525;BME280;8375;33.594;-117.718;2023-02-11T07:27:31;100243.56;;;11.97;43.68
16525;BME280;8375;33.594;-117.718;2023-02-11T07:30:00;100250.94;;;11.92;43.67
16525;BME280;8375;33.594;-117.718;2023-02-11T07:32:30;100250.22;;;11.90;43.47
16525;BME280;8375;33.594;-117.718;2023-02-11T07:34:59;100246.38;;;11.84;42.95
16525;BME280;8375;33.594;-117.718;2023-02-11T07:37:29;100250.16;;;11.80;42.53
16525;BME280;8375;33.594;-117.718;2023-02-11T07:39:57;100235.06;;;11.74;43.24
16525;BME280;8375;33.594;-117.718;2023-02-11T07:42:26;100223.97;;;11.72;43.75
16525;BME280;8375;33.594;-117.718;2023-02-11T07:44:54;100231.31;;;11.67;43.96
16525;BME280;8375;33.594;-117.718;2023-02-11T07:47:23;100220.72;;;11.58;44.34
16525;BME280;8375;33.594;-117.718;2023-02-11T07:49:54;100213.41;;;11.52;44.49
16525;BME280;8375;33.594;-117.718;2023-02-11T07:52:23;100206.31;;;11.54;44.72
16525;BME280;8375;33.594;-117.718;2023-02-11T07:54:51;100202.06;;;11.53;44.17
16525;BME280;8375;33.594;-117.718;2023-02-11T07:57:20;100195.47;;;11.49;42.96
16525;BME280;8375;33.594;-117.718;2023-02-11T07:59:48;100187.53;;;11.51;43.29
16525;BME280;8375;33.594;-117.718;2023-02-11T08:02:17;100173.72;;;11.50;43.43
16525;BME280;8375;33.594;-117.718;2023-02-11T08:04:46;100165.53;;;11.55;44.79
16525;BME280;8375;33.594;-117.718;2023-02-11T08:07:18;100171.06;;;11.62;44.46
16525;BME280;8375;33.594;-117.718;2023-02-11T08:09:46;100168.22;;;11.65;44.89
16525;BME280;8375;33.594;-117.718;2023-02-11T08:12:15;100178.34;;;11.68;43.74
16525;BME280;8375;33.594;-117.718;2023-02-11T08:14:44;100177.06;;;11.62;41.96
16525;BME280;8375;33.594;-117.718;2023-02-11T08:17:12;100172.38;;;11.56;43.20
16525;BME280;8375;33.594;-117.718;2023-02-11T08:19:41;100171.31;;;11.58;44.64
16525;BME280;8375;33.594;-117.718;2023-02-11T08:22:10;100172.25;;;11.57;44.31
16525;BME280;8375;33.594;-117.718;2023-02-11T08:24:40;100168.38;;;11.52;41.87
16525;BME280;8375;33.594;-117.718;2023-02-11T08:27:09;100167.41;;;11.53;43.22
16525;BME280;8375;33.594;-117.718;2023-02-11T08:29:38;100163.31;;;11.50;43.83
16525;BME280;8375;33.594;-117.718;2023-02-11T08:32:07;100169.00;;;11.44;43.63
16525;BME280;8375;33.594;-117.718;2023-02-11T08:34:35;100172.56;;;11.43;43.75
16525;BME280;8375;33.594;-117.718;2023-02-11T08:37:04;100176.09;;;11.42;46.16
16525;BME280;8375;33.594;-117.718;2023-02-11T08:39:34;100169.50;;;11.38;43.56
16525;BME280;8375;33.594;-117.718;2023-02-11T08:42:04;100180.75;;;11.27;44.47
16525;BME280;8375;33.594;-117.718;2023-02-11T08:44:33;100175.81;;;11.24;46.30
16525;BME280;8375;33.594;-117.718;2023-02-11T08:47:02;100174.88;;;11.13;47.15
16525;BME280;8375;33.594;-117.718;2023-02-11T08:49:31;100185.66;;;11.09;47.99
16525;BME280;8375;33.594;-117.718;2023-02-11T08:52:00;100179.41;;;11.00;48.40
16525;BME280;8375;33.594;-117.718;2023-02-11T08:54:30;100178.00;;;10.96;47.65
16525;BME280;8375;33.594;-117.718;2023-02-11T08:56:59;100168.69;;;10.93;46.89
16525;BME280;8375;33.594;-117.718;2023-02-11T08:59:30;100174.00;;;10.92;45.36
16525;BME280;8375;33.594;-117.718;2023-02-11T09:01:58;100156.66;;;10.92;45.80
16525;BME280;8375;33.594;-117.718;2023-02-11T09:04:27;100160.44;;;10.88;46.10
16525;BME280;8375;33.594;-117.718;2023-02-11T09:06:56;100156.75;;;10.91;46.65
16525;BME280;8375;33.594;-117.718;2023-02-11T09:09:25;100161.72;;;10.94;48.18
16525;BME280;8375;33.594;-117.718;2023-02-11T09:11:53;100151.47;;;10.92;47.07
16525;BME280;8375;33.594;-117.718;2023-02-11T09:14:24;100139.53;;;10.78;46.70
16525;BME280;8375;33.594;-117.718;2023-02-11T09:16:54;100136.25;;;10.76;46.62
16525;BME280;8375;33.594;-117.718;2023-02-11T09:19:22;100140.16;;;10.82;49.13
16525;BME280;8375;33.594;-117.718;2023-02-11T09:21:51;100135.53;;;10.74;48.47
16525;BME280;8375;33.594;-117.718;2023-02-11T09:24:20;100131.19;;;10.75;49.23
16525;BME280;8375;33.594;-117.718;2023-02-11T09:26:48;100134.03;;;10.71;48.08
16525;BME280;8375;33.594;-117.718;2023-02-11T09:29:17;100130.34;;;10.74;47.74
16525;BME280;8375;33.594;-117.718;2023-02-11T09:31:46;100122.81;;;10.71;47.07
16525;BME280;8375;33.594;-117.718;2023-02-11T09:34:16;100116.19;;;10.67;46.69
16525;BME280;8375;33.594;-117.718;2023-02-11T09:36:45;100118.00;;;10.66;46.57
16525;BME280;8375;33.594;-117.718;2023-02-11T09:39:16;100118.22;;;10.63;48.12
16525;BME280;8375;33.594;-117.718;2023-02-11T09:42:05;100120.94;;;10.62;48.53
16525;BME280;8375;33.594;-117.718;2023-02-11T09:44:37;100124.56;;;10.59;48.38
16525;BME280;8375;33.594;-117.718;2023-02-11T09:47:19;100120.22;;;10.60;48.01
16525;BME280;8375;33.594;-117.718;2023-02-11T09:49:55;100124.38;;;10.62;48.09
16525;BME280;8375;33.594;-117.718;2023-02-11T09:52:31;100127.78;;;10.63;48.91
16525;BME280;8375;33.594;-117.718;2023-02-11T09:55:03;100126.81;;;10.64;48.52
16525;BME280;8375;33.594;-117.718;2023-02-11T09:57:34;100125.28;;;10.73;46.99
16525;BME280;8375;33.594;-117.718;2023-02-11T10:00:17;100108.63;;;10.75;46.20
16525;BME280;8375;33.594;-117.718;2023-02-11T10:02:58;100114.41;;;10.79;47.95
16525;BME280;8375;33.594;-117.718;2023-02-11T10:05:40;100113.00;;;10.75;50.18
16525;BME280;8375;33.594;-117.718;2023-02-11T10:08:19;100098.72;;;10.69;49.55
16525;BME280;8375;33.594;-117.718;2023-02-11T10:10:52;100098.03;;;10.67;50.10
16525;BME280;8375;33.594;-117.718;2023-02-11T10:13:39;100106.66;;;10.67;50.95
16525;BME280;8375;33.594;-117.718;2023-02-11T10:16:22;100099.22;;;10.63;51.77
16525;BME280;8375;33.594;-117.718;2023-02-11T10:19:04;100100.28;;;10.60;51.35
16525;BME280;8375;33.594;-117.718;2023-02-11T10:21:45;100097.91;;;10.57;50.24
16525;BME280;8375;33.594;-117.718;2023-02-11T10:24:17;100092.97;;;10.54;49.43
16525;BME280;8375;33.594;-117.718;2023-02-11T10:26:46;100081.38;;;10.58;51.42
16525;BME280;8375;33.594;-117.718;2023-02-11T10:29:25;100081.19;;;10.61;51.64
16525;BME280;8375;33.594;-117.718;2023-02-11T10:31:59;100079.41;;;10.62;51.86
16525;BME280;8375;33.594;-117.718;2023-02-11T10:34:31;100069.16;;;10.60;52.92
16525;BME280;8375;33.594;-117.718;2023-02-11T10:37:01;100070.56;;;10.64;54.46
16525;BME280;8375;33.594;-117.718;2023-02-11T10:39:32;100068.31;;;10.60;53.40
16525;BME280;8375;33.594;-117.718;2023-02-11T10:42:05;100064.16;;;10.57;54.18
16525;BME280;8375;33.594;-117.718;2023-02-11T10:44:38;100063.34;;;10.56;55.26
16525;BME280;8375;33.594;-117.718;2023-02-11T10:47:11;100072.34;;;10.52;56.16
16525;BME280;8375;33.594;-117.718;2023-02-11T10:49:42;100063.22;;;10.58;58.90
16525;BME280;8375;33.594;-117.718;2023-02-11T10:52:20;100060.97;;;10.65;62.27
16525;BME280;8375;33.594;-117.718;2023-02-11T10:54:56;100063.09;;;10.71;63.53
16525;BME280;8375;33.594;-117.718;2023-02-11T10:57:29;100074.06;;;10.75;63.91
16525;BME280;8375;33.594;-117.718;2023-02-11T11:00:03;100070.78;;;10.73;64.32
16525;BME280;8375;33.594;-117.718;2023-02-11T11:02:33;100071.81;;;10.70;64.33
16525;BME280;8375;33.594;-117.718;2023-02-11T11:05:16;100072.19;;;10.65;63.92
16525;BME280;8375;33.594;-117.718;2023-02-11T11:07:54;100060.88;;;10.66;64.68
16525;BME280;8375;33.594;-117.718;2023-02-11T11:10:30;100047.91;;;10.66;65.02
16525;BME280;8375;33.594;-117.718;2023-02-11T11:13:01;100045.41;;;10.65;65.12
16525;BME280;8375;33.594;-117.718;2023-02-11T11:15:30;100050.34;;;10.68;65.29
16525;BME280;8375;33.594;-117.718;2023-02-11T11:18:11;100032.81;;;10.60;65.36
16525;BME280;8375;33.594;-117.718;2023-02-11T11:20:51;100034.09;;;10.54;65.67
16525;BME280;8375;33.594;-117.718;2023-02-11T11:23:24;100047.19;;;10.53;65.93
16525;BME280;8375;33.594;-117.718;2023-02-11T11:26:01;100047.56;;;10.48;65.61
16525;BME280;8375;33.594;-117.718;2023-02-11T11:28:35;100048.06;;;10.42;65.36
16525;BME280;8375;33.594;-117.718;2023-02-11T11:31:12;100052.16;;;10.45;66.06
16525;BME280;8375;33.594;-117.718;2023-02-11T11:33:43;100063.25;;;10.47;66.31
16525;BME280;8375;33.594;-117.718;2023-02-11T11:36:15;100058.44;;;10.42;66.93
16525;BME280;8375;33.594;-117.718;2023-02-11T11:38:49;100054.19;;;10.41;67.48
16525;BME280;8375;33.594;-117.718;2023-02-11T11:41:23;100053.09;;;10.44;68.25
16525;BME280;8375;33.594;-117.718;2023-02-11T11:43:57;100042.97;;;10.40;68.80
16525;BME280;8375;33.594;-117.718;2023-02-11T11:46:28;100038.47;;;10.42;68.98
16525;BME280;8375;33.594;-117.718;2023-02-11T11:49:08;100046.16;;;10.44;69.06
16525;BME280;8375;33.594;-117.718;2023-02-11T11:51:42;100044.81;;;10.38;69.59
16525;BME280;8375;33.594;-117.718;2023-02-11T11:54:17;100046.38;;;10.30;71.35
16525;BME280;8375;33.594;-117.718;2023-02-11T11:56:53;100034.00;;;10.22;71.47
16525;BME280;8375;33.594;-117.718;2023-02-11T11:59:24;100041.44;;;10.15;71.95
16525;BME280;8375;33.594;-117.718;2023-02-11T12:02:14;100043.34;;;10.13;72.50
16525;BME280;8375;33.594;-117.718;2023-02-11T12:04:59;100046.97;;;10.10;73.60
16525;BME280;8375;33.594;-117.718;2023-02-11T12:07:39;100039.44;;;10.07;74.08
16525;BME280;8375;33.594;-117.718;2023-02-11T12:10:30;100035.78;;;10.10;75.17
16525;BME280;8375;33.594;-117.718;2023-02-11T12:13:11;100026.94;;;10.01;75.88
16525;BME280;8375;33.594;-117.718;2023-02-11T12:15:54;100038.38;;;9.98;75.86
16525;BME280;8375;33.594;-117.718;2023-02-11T12:18:33;100038.63;;;9.95;76.24
16525;BME280;8375;33.594;-117.718;2023-02-11T12:21:20;100039.91;;;9.90;76.84
16525;BME280;8375;33.594;-117.718;2023-02-11T12:24:05;100041.78;;;9.88;77.59
16525;BME280;8375;33.594;-117.718;2023-02-11T12:26:43;100041.44;;;9.81;76.35
16525;BME280;8375;33.594;-117.718;2023-02-11T12:29:20;100042.63;;;9.65;75.17
16525;BME280;8375;33.594;-117.718;2023-02-11T12:32:02;100046.13;;;9.53;74.76
16525;BME280;8375;33.594;-117.718;2023-02-11T12:35:03;100042.34;;;9.46;75.11
16525;BME280;8375;33.594;-117.718;2023-02-11T12:37:44;100038.09;;;9.45;75.97
16525;BME280;8375;33.594;-117.718;2023-02-11T12:40:19;100031.38;;;9.42;76.44
16525;BME280;8375;33.594;-117.718;2023-02-11T12:43:01;100033.97;;;9.42;77.35
16525;BME280;8375;33.594;-117.718;2023-02-11T12:46:09;100036.44;;;9.44;77.73
16525;BME280;8375;33.594;-117.718;2023-02-11T12:49:01;100039.38;;;9.39;78.22
16525;BME280;8375;33.594;-117.718;2023-02-11T12:51:46;100045.13;;;9.31;78.36
16525;BME280;8375;33.594;-117.718;2023-02-11T12:54:23;100034.78;;;9.31;79.74
16525;BME280;8375;33.594;-117.718;2023-02-11T12:56:59;100043.81;;;9.25;80.23
16525;BME280;8375;33.594;-117.718;2023-02-11T12:59:43;100053.94;;;9.29;80.51
16525;BME280;8375;33.594;-117.718;2023-02-11T13:02:26;100048.53;;;9.32;82.14
16525;BME280;8375;33.594;-117.718;2023-02-11T13:04:59;100046.88;;;9.31;81.61